Dhaka/Tezgaon, Bangladesh
Current Conditions -  °F | °C
As of 2:50 PM on Tuesday 21 Oct 2014 (Local Time) from VGHS Reporting Station
Haze Haze  
Wind Chill: 90°   Ceiling: Unl
Heat Index: 92°   Visibility: 3mi
Dew Point: 66°   Wind: 9mph
Humidity: 46%   Direction: 60°ENE
Pressure: 29.85"   Gusts: NA
Location:  23.45°N, 90.22°E
Report Text: VGHS 210850Z 06008KT 5000 HZ FEW100 32/19 Q1011 NOSIG
Loading
Personal Weather Stations






























Interactive Weather Map
Tropical Storm Tracking
New forecast layout! Learn more

10-Day Weather Forecast

Advertisements
Track Severe Weather on mobile